createdAt,value
2023-02-19T00:00:46.062Z,98453.31
2023-02-19T00:03:52.704Z,98456.84
2023-02-19T00:06:57.237Z,98449.28
2023-02-19T00:10:00.404Z,98450.25
2023-02-19T00:13:03.528Z,98456.44
2023-02-19T00:16:07.692Z,98466.69
2023-02-19T00:19:14.354Z,98461.47
2023-02-19T00:22:18.795Z,98465.78
2023-02-19T00:25:21.848Z,98457.19
2023-02-19T00:28:25.288Z,98462.31
2023-02-19T00:31:32.489Z,98458.81
2023-02-19T00:34:37.257Z,98456.13
2023-02-19T00:37:41.669Z,98461.41
2023-02-19T00:40:44.768Z,98451.97
2023-02-19T00:43:50.312Z,98433.50
2023-02-19T00:46:53.446Z,98463.19
2023-02-19T00:49:58.892Z,98473.03
2023-02-19T00:53:03.644Z,98476.84
2023-02-19T00:56:08.013Z,98472.97
2023-02-19T00:59:16.072Z,98464.44
2023-02-19T01:02:19.640Z,98474.88
2023-02-19T01:05:22.828Z,98451.66
2023-02-19T01:08:27.488Z,98434.63
2023-02-19T01:11:31.216Z,98440.69
2023-02-19T01:14:34.754Z,98437.34
2023-02-19T01:17:38.828Z,98439.00
2023-02-19T01:20:44.296Z,98429.53
2023-02-19T01:23:49.609Z,98426.91
2023-02-19T01:26:52.706Z,98414.06
2023-02-19T01:29:55.900Z,98421.75
2023-02-19T01:32:59.018Z,98418.22
2023-02-19T01:36:04.637Z,98425.00
2023-02-19T01:39:09.504Z,98407.75
2023-02-19T01:42:16.418Z,98396.59
2023-02-19T01:45:24.826Z,98386.28
2023-02-19T01:48:35.094Z,98382.94
2023-02-19T01:51:42.243Z,98385.72
2023-02-19T01:54:48.178Z,98384.22
2023-02-19T01:57:56.213Z,98375.75
2023-02-19T02:00:59.678Z,98375.84
2023-02-19T02:04:02.789Z,98394.91
2023-02-19T02:07:28.062Z,98371.69
2023-02-19T02:10:31.676Z,98394.53
2023-02-19T02:13:36.116Z,98397.06
2023-02-19T02:16:53.650Z,98406.44
2023-02-19T02:20:23.442Z,98401.16
2023-02-19T02:23:41.500Z,98407.94
2023-02-19T02:27:00.583Z,98388.81
2023-02-19T02:30:30.019Z,98385.22
2023-02-19T02:33:40.162Z,98375.63
2023-02-19T02:36:46.534Z,98369.50
2023-02-19T02:39:53.494Z,98356.47
2023-02-19T02:42:58.957Z,98347.16
2023-02-19T02:46:04.400Z,98336.84
2023-02-19T02:49:15.864Z,98300.94
2023-02-19T02:52:39.096Z,98350.09
2023-02-19T02:55:43.981Z,98342.44
2023-02-19T02:58:50.600Z,98344.13
2023-02-19T03:02:12.384Z,98335.41
2023-02-19T03:05:38.254Z,98328.44
2023-02-19T03:08:46.998Z,98323.16
2023-02-19T03:12:22.681Z,98322.31
2023-02-19T03:15:46.626Z,98313.59
2023-02-19T03:19:12.744Z,98314.44
2023-02-19T03:22:19.926Z,98308.53
2023-02-19T03:25:43.495Z,98298.00
2023-02-19T03:29:09.846Z,98304.13
2023-02-19T03:32:18.401Z,98282.28
2023-02-19T03:35:26.596Z,98304.91
2023-02-19T03:38:38.280Z,98303.34
2023-02-19T03:41:50.428Z,98298.84
2023-02-19T03:45:07.759Z,98295.38
2023-02-19T03:48:23.797Z,98277.56
2023-02-19T03:51:38.948Z,98295.38
2023-02-19T03:54:50.231Z,98296.22
2023-02-19T03:57:58.364Z,98297.06
2023-02-19T04:01:08.420Z,98295.38
2023-02-19T04:04:18.073Z,98286.66
2023-02-19T04:07:23.063Z,98294.34
2023-02-19T04:10:29.038Z,98287.16
2023-02-19T04:13:38.540Z,98297.00
2023-02-19T04:16:45.324Z,98309.06
2023-02-19T04:19:51.171Z,98306.53
2023-02-19T04:22:57.049Z,98317.75
2023-02-19T04:26:02.227Z,98325.50
2023-02-19T04:29:05.411Z,98313.50
2023-02-19T04:34:34.403Z,98317.97
2023-02-19T04:37:37.681Z,98321.41
2023-02-19T04:40:41.039Z,98315.44
2023-02-19T04:43:44.139Z,98321.44
2023-02-19T04:46:47.376Z,98290.94
2023-02-19T04:49:51.876Z,98309.41
2023-02-19T04:52:55.202Z,98300.94
2023-02-19T04:55:58.297Z,98305.94
2023-02-19T04:59:01.616Z,98318.13
2023-02-19T05:02:04.681Z,98331.81
2023-02-19T05:05:09.841Z,98327.34
2023-02-19T05:08:13.004Z,98330.72
2023-02-19T05:11:16.190Z,98322.25
2023-02-19T05:14:19.352Z,98311.88
2023-02-19T05:17:22.720Z,98315.28
2023-02-19T05:20:27.233Z,98319.50
2023-02-19T05:23:30.427Z,98316.06
2023-02-19T05:26:33.934Z,98309.28
2023-02-19T05:29:37.137Z,98305.88
2023-02-19T05:32:40.540Z,98310.06
2023-02-19T05:35:46.550Z,98310.84
2023-02-19T05:38:53.204Z,98301.44
2023-02-19T05:41:56.342Z,98304.81
2023-02-19T05:44:59.559Z,98309.19
2023-02-19T05:48:03.056Z,98307.56
2023-02-19T05:51:09.321Z,98319.38
2023-02-19T05:54:12.608Z,98314.94
2023-02-19T05:57:15.700Z,98303.81
2023-02-19T06:00:20.759Z,98316.81
2023-02-19T06:03:24.017Z,98359.72
2023-02-19T06:06:28.813Z,98373.59
2023-02-19T06:09:32.285Z,98354.78
2023-02-19T06:12:35.420Z,98348.91
2023-02-19T06:15:38.912Z,98341.56
2023-02-19T06:18:42.339Z,98380.06
2023-02-19T06:21:46.898Z,98396.78
2023-02-19T06:24:50.382Z,98403.63
2023-02-19T06:27:53.571Z,98400.91
2023-02-19T06:30:58.958Z,98404.97
2023-02-19T06:34:04.924Z,98405.69
2023-02-19T06:37:11.559Z,98378.09
2023-02-19T06:40:14.803Z,98360.69
2023-02-19T06:43:17.948Z,98366.69
2023-02-19T06:46:21.137Z,98363.09
2023-02-19T06:49:24.352Z,98358.81
2023-02-19T06:52:29.192Z,98369.16
2023-02-19T06:55:32.275Z,98370.84
2023-02-19T06:58:35.902Z,98382.84
2023-02-19T07:01:40.412Z,98377.69
2023-02-19T07:04:43.571Z,98393.97
2023-02-19T07:07:48.112Z,98387.88
2023-02-19T07:11:01.014Z,98387.03
2023-02-19T07:14:07.513Z,98398.19
2023-02-19T07:17:10.643Z,98391.31
2023-02-19T07:20:14.700Z,98407.63
2023-02-19T07:23:19.230Z,98407.59
2023-02-19T07:26:22.951Z,98407.69
2023-02-19T07:29:26.190Z,98416.28
2023-02-19T07:32:29.319Z,98419.69
2023-02-19T07:35:32.413Z,98418.84
2023-02-19T07:38:36.948Z,98431.56
2023-02-19T07:41:40.463Z,98432.41
2023-02-19T07:44:43.613Z,98425.50
2023-02-19T07:47:46.795Z,98433.00
2023-02-19T07:50:53.925Z,98435.59
2023-02-19T07:53:58.629Z,98434.69
2023-02-19T07:57:01.746Z,98437.25
2023-02-19T08:00:05.590Z,98430.47
2023-02-19T08:03:15.965Z,98441.47
2023-02-19T08:06:19.124Z,98420.03
2023-02-19T08:09:23.598Z,98438.66
2023-02-19T08:12:57.528Z,98440.16
2023-02-19T08:16:20.035Z,98434.69
2023-02-19T08:19:27.575Z,98439.84
2023-02-19T08:22:31.229Z,98437.88
2023-02-19T08:25:36.252Z,98406.50
2023-02-19T08:28:39.414Z,98439.28
2023-02-19T08:31:42.684Z,98439.94
2023-02-19T08:34:46.261Z,98448.53
2023-02-19T08:37:49.380Z,98459.00
2023-02-19T08:40:53.875Z,98459.72
2023-02-19T08:43:57.113Z,98472.75
2023-02-19T08:47:00.141Z,98472.59
2023-02-19T08:50:05.027Z,98482.78
2023-02-19T08:53:08.818Z,98471.00
2023-02-19T08:56:15.441Z,98494.03
2023-02-19T08:59:20.218Z,98498.34
2023-02-19T09:02:23.758Z,98493.06
2023-02-19T09:05:27.051Z,98496.25
2023-02-19T09:08:30.247Z,98494.63
2023-02-19T09:11:37.083Z,98503.94
2023-02-19T09:14:40.509Z,98486.09
2023-02-19T09:17:43.668Z,98506.94
2023-02-19T09:20:47.122Z,98505.00
2023-02-19T09:23:50.400Z,98513.38
2023-02-19T09:26:56.001Z,98513.53
2023-02-19T09:29:59.563Z,98520.53
2023-02-19T09:33:02.782Z,98536.41
2023-02-19T09:36:06.885Z,98535.63
2023-02-19T09:39:12.461Z,98537.38
2023-02-19T09:42:20.512Z,98533.59
2023-02-19T09:45:26.574Z,98544.22
2023-02-19T09:48:29.913Z,98539.75
2023-02-19T09:51:35.735Z,98539.72
2023-02-19T09:54:41.001Z,98541.50
2023-02-19T09:57:46.807Z,98543.31
2023-02-19T10:00:53.050Z,98541.88
2023-02-19T10:03:56.512Z,98543.09
2023-02-19T10:07:03.844Z,98544.53
2023-02-19T10:10:28.439Z,98543.09
2023-02-19T10:13:36.839Z,98536.94
2023-02-19T10:16:42.176Z,98531.59
2023-02-19T10:19:45.897Z,98539.94
2023-02-19T10:22:49.788Z,98546.84
2023-02-19T10:25:57.078Z,98551.97
2023-02-19T10:29:02.040Z,98550.28
2023-02-19T10:34:34.520Z,98568.34
2023-02-19T10:37:44.171Z,98572.78
2023-02-19T10:40:48.206Z,98565.69
2023-02-19T10:43:55.561Z,98529.53
2023-02-19T10:47:02.044Z,98565.50
2023-02-19T10:50:08.821Z,98584.69
2023-02-19T10:53:23.071Z,98578.66
2023-02-19T10:56:28.832Z,98568.66
2023-02-19T10:59:32.140Z,98549.13
2023-02-19T11:02:35.372Z,98566.31
2023-02-19T11:05:42.574Z,98574.06
2023-02-19T11:08:54.778Z,98575.94
2023-02-19T11:11:59.428Z,98573.47
2023-02-19T11:15:18.685Z,98575.59
2023-02-19T11:18:24.467Z,98583.53
2023-02-19T11:21:33.066Z,98588.72
2023-02-19T11:24:40.578Z,98598.66
2023-02-19T11:27:56.032Z,98618.91
2023-02-19T11:31:16.158Z,98641.72
2023-02-19T11:34:29.800Z,98687.13
2023-02-19T11:37:34.562Z,98687.97
2023-02-19T11:40:42.187Z,98702.63
2023-02-19T11:44:07.262Z,98711.09
2023-02-19T11:47:32.636Z,98712.63
2023-02-19T11:51:02.379Z,98706.34
2023-02-19T11:54:19.528Z,98661.50
2023-02-19T11:57:37.167Z,98574.28
2023-02-19T12:00:49.406Z,98632.16
2023-02-19T12:04:26.994Z,98590.00
2023-02-19T12:07:58.368Z,98627.88
2023-02-19T12:11:17.159Z,98646.00
2023-02-19T12:14:48.124Z,98657.03
2023-02-19T12:18:11.423Z,98644.06
2023-02-19T12:21:29.846Z,98646.34
2023-02-19T12:24:48.842Z,98639.38
2023-02-19T12:28:11.184Z,98634.69
2023-02-19T12:31:37.465Z,98711.28
2023-02-19T12:35:06.907Z,98674.94
2023-02-19T12:38:32.455Z,98662.84
2023-02-19T12:41:44.172Z,98676.19
2023-02-19T12:44:55.237Z,98699.06
2023-02-19T12:48:02.541Z,98638.97
2023-02-19T12:51:13.183Z,98596.81
2023-02-19T12:54:21.103Z,98577.03
2023-02-19T12:57:26.846Z,98605.13
2023-02-19T13:00:39.398Z,98587.97
2023-02-19T13:03:49.264Z,98575.84
2023-02-19T13:06:56.485Z,98579.31
2023-02-19T13:10:06.848Z,98584.28
2023-02-19T13:13:20.118Z,98519.59
2023-02-19T13:16:25.875Z,98586.28
2023-02-19T13:19:30.120Z,98593.50
2023-02-19T13:22:57.865Z,98603.84
2023-02-19T13:26:20.555Z,98611.31
2023-02-19T13:29:38.558Z,98611.63
2023-02-19T13:33:03.265Z,98630.56
2023-02-19T13:36:13.077Z,98645.31
2023-02-19T13:39:17.953Z,98720.56
2023-02-19T13:42:34.110Z,98711.09
2023-02-19T13:45:40.942Z,98680.09
2023-02-19T13:48:45.538Z,98647.81
2023-02-19T13:51:51.319Z,98628.94
2023-02-19T13:55:33.182Z,98634.84
2023-02-19T13:58:40.592Z,98624.75
2023-02-19T14:02:29.021Z,98552.03
2023-02-19T14:06:00.203Z,98627.22
2023-02-19T14:09:03.713Z,98640.75
2023-02-19T14:12:20.320Z,98648.53
2023-02-19T14:15:43.849Z,98655.31
2023-02-19T14:18:47.684Z,98653.06
2023-02-19T14:21:50.813Z,98666.53
2023-02-19T14:24:56.281Z,98666.91
2023-02-19T14:28:04.118Z,98676.56
2023-02-19T14:31:19.711Z,98667.28
2023-02-19T14:34:27.078Z,98653.94
2023-02-19T14:37:30.410Z,98685.84
2023-02-19T14:40:41.521Z,98686.81
2023-02-19T14:43:46.348Z,98693.63
2023-02-19T14:46:58.381Z,98697.13
2023-02-19T14:50:04.343Z,98692.81
2023-02-19T14:53:09.369Z,98702.66
2023-02-19T14:56:21.771Z,98718.81
2023-02-19T14:59:28.955Z,98719.59
2023-02-19T15:02:33.663Z,98711.06
2023-02-19T15:05:38.558Z,98713.59
2023-02-19T15:08:46.256Z,98711.75
2023-02-19T15:11:49.924Z,98721.06
2023-02-19T15:14:57.422Z,98713.41
2023-02-19T15:18:03.778Z,98714.91
2023-02-19T15:21:08.090Z,98700.91
2023-02-19T15:24:14.437Z,98711.16
2023-02-19T15:27:20.483Z,98706.28
2023-02-19T15:30:25.806Z,98706.38
2023-02-19T15:33:30.493Z,98716.13
2023-02-19T15:36:35.836Z,98691.13
2023-02-19T15:39:40.736Z,98718.28
2023-02-19T15:42:46.937Z,98717.47
2023-02-19T15:45:52.468Z,98719.41
2023-02-19T15:49:03.813Z,98717.03
2023-02-19T15:52:11.673Z,98697.53
2023-02-19T15:55:26.117Z,98708.50
2023-02-19T15:58:33.598Z,98724.00
2023-02-19T16:01:38.555Z,98729.13
2023-02-19T16:04:45.014Z,98738.56
2023-02-19T16:07:48.264Z,98734.31
2023-02-19T16:10:56.679Z,98737.72
2023-02-19T16:14:24.058Z,98751.75
2023-02-19T16:17:28.277Z,98758.75
2023-02-19T16:20:35.541Z,98758.09
2023-02-19T16:23:43.742Z,98767.50
2023-02-19T16:26:47.243Z,98766.66
2023-02-19T16:29:52.451Z,98743.03
2023-02-19T16:34:43.277Z,98768.38
2023-02-19T16:37:58.298Z,98756.50
2023-02-19T16:41:13.726Z,98757.50
2023-02-19T16:44:31.609Z,98760.03
2023-02-19T16:47:38.004Z,98755.94
2023-02-19T16:50:42.666Z,98768.84
2023-02-19T16:53:45.980Z,98767.97
2023-02-19T16:56:49.123Z,98775.75
2023-02-19T16:59:52.282Z,98780.16
2023-02-19T17:02:58.350Z,98757.34
2023-02-19T17:06:02.952Z,98796.63
2023-02-19T17:09:06.534Z,98806.19
2023-02-19T17:12:12.996Z,98810.47
2023-02-19T17:15:16.306Z,98788.41
2023-02-19T17:18:19.586Z,98821.47
2023-02-19T17:21:26.079Z,98824.22
2023-02-19T17:24:29.167Z,98825.03
2023-02-19T17:27:32.284Z,98839.88
2023-02-19T17:30:37.307Z,98848.63
2023-02-19T17:33:42.660Z,98840.38
2023-02-19T17:36:49.207Z,98858.19
2023-02-19T17:39:52.365Z,98852.34
2023-02-19T17:42:55.523Z,98861.91
2023-02-19T17:45:58.699Z,98866.09
2023-02-19T17:49:01.853Z,98869.59
2023-02-19T17:52:06.684Z,98879.06
2023-02-19T17:55:11.081Z,98889.59
2023-02-19T17:58:14.784Z,98893.75
2023-02-19T18:01:18.521Z,98905.06
2023-02-19T18:04:21.905Z,98909.22
2023-02-19T18:07:26.487Z,98918.69
2023-02-19T18:10:30.463Z,98914.50
2023-02-19T18:13:33.633Z,98924.78
2023-02-19T18:16:36.791Z,98923.00
2023-02-19T18:19:40.645Z,98928.28
2023-02-19T18:22:45.245Z,98926.59
2023-02-19T18:25:48.564Z,98907.88
2023-02-19T18:28:51.724Z,98928.88
2023-02-19T18:31:55.324Z,98932.44
2023-02-19T18:35:00.073Z,98932.44
2023-02-19T18:38:04.644Z,98928.94
2023-02-19T18:41:12.502Z,98932.22
2023-02-19T18:44:19.006Z,98935.59
2023-02-19T18:47:25.118Z,98940.78
2023-02-19T18:50:28.542Z,98943.34
2023-02-19T18:53:33.072Z,98948.50
2023-02-19T18:56:42.247Z,98951.91
2023-02-19T18:59:45.578Z,98952.81
2023-02-19T19:02:51.170Z,98939.94
2023-02-19T19:05:55.098Z,98945.91
2023-02-19T19:09:00.088Z,98941.72
2023-02-19T19:12:04.045Z,98939.25
2023-02-19T19:15:07.622Z,98927.47
2023-02-19T19:18:11.298Z,98957.31
2023-02-19T19:21:15.799Z,98959.03
2023-02-19T19:24:20.678Z,98961.63
2023-02-19T19:27:23.972Z,98957.47
2023-02-19T19:30:27.247Z,98967.78
2023-02-19T19:33:30.603Z,98961.91
2023-02-19T19:36:34.089Z,98967.84
2023-02-19T19:39:38.718Z,98969.59
2023-02-19T19:42:44.201Z,98967.03
2023-02-19T19:45:47.673Z,98968.81
2023-02-19T19:48:52.745Z,98984.28
2023-02-19T19:51:58.595Z,98979.22
2023-02-19T19:55:03.287Z,98975.84
2023-02-19T19:58:06.924Z,98987.88
2023-02-19T20:01:10.901Z,98990.47
2023-02-19T20:04:14.223Z,98987.00
2023-02-19T20:07:17.448Z,98985.25
2023-02-19T20:10:22.275Z,98989.63
2023-02-19T20:13:26.435Z,98992.16
2023-02-19T20:16:29.869Z,98997.38
2023-02-19T20:19:33.180Z,99006.03
2023-02-19T20:22:36.707Z,99006.84
2023-02-19T20:25:41.203Z,98997.50
2023-02-19T20:28:46.362Z,99007.88
2023-02-19T20:31:51.418Z,99018.28
2023-02-19T20:34:54.828Z,99024.31
2023-02-19T20:37:57.954Z,99001.44
2023-02-19T20:41:02.540Z,99015.06
2023-02-19T20:44:06.044Z,98992.22
2023-02-19T20:47:09.137Z,99009.22
2023-02-19T20:50:13.016Z,99024.56
2023-02-19T20:53:16.153Z,99029.72
2023-02-19T20:56:20.666Z,99030.59
2023-02-19T20:59:27.040Z,99023.81
2023-02-19T21:02:30.197Z,99056.63
2023-02-19T21:05:33.475Z,99054.97
2023-02-19T21:08:36.617Z,99052.44
2023-02-19T21:11:41.128Z,99052.44
2023-02-19T21:14:44.310Z,99043.81
2023-02-19T21:17:47.524Z,99024.91
2023-02-19T21:20:50.657Z,99040.31
2023-02-19T21:23:54.296Z,99044.56
2023-02-19T21:26:58.778Z,99044.66
2023-02-19T21:30:01.894Z,99037.75
2023-02-19T21:33:05.325Z,99032.56
2023-02-19T21:36:09.873Z,99032.59
2023-02-19T21:39:16.168Z,99033.47
2023-02-19T21:42:20.852Z,99030.81
2023-02-19T21:45:24.495Z,99039.38
2023-02-19T21:48:27.621Z,99029.13
2023-02-19T21:51:33.104Z,99021.41
2023-02-19T21:54:36.226Z,99026.50
2023-02-19T21:57:40.977Z,99022.16
2023-02-19T22:00:44.473Z,99033.34
2023-02-19T22:03:47.866Z,99040.22
2023-02-19T22:06:51.289Z,99039.44
2023-02-19T22:09:54.718Z,99050.56
2023-02-19T22:12:59.198Z,99043.78
2023-02-19T22:16:02.472Z,99037.00
2023-02-19T22:19:05.947Z,99062.63
2023-02-19T22:22:09.037Z,99060.94
2023-02-19T22:25:12.206Z,99063.56
2023-02-19T22:28:16.867Z,99066.97
2023-02-19T22:34:33.786Z,99076.38
2023-02-19T22:37:37.029Z,99082.22
2023-02-19T22:40:40.169Z,99090.09
2023-02-19T22:43:43.519Z,99089.16
2023-02-19T22:46:49.049Z,99091.69
2023-02-19T22:49:53.514Z,99082.19
2023-02-19T22:52:56.702Z,99101.06
2023-02-19T22:55:59.863Z,99107.03
2023-02-19T22:59:02.989Z,99109.63
2023-02-19T23:02:06.099Z,99116.53
2023-02-19T23:05:10.670Z,99110.44
2023-02-19T23:08:13.835Z,99102.72
2023-02-19T23:11:22.203Z,99104.38
2023-02-19T23:14:25.379Z,99091.53
2023-02-19T23:17:28.781Z,99085.50
2023-02-19T23:20:33.488Z,99080.25
2023-02-19T23:23:37.109Z,99075.09
2023-02-19T23:26:43.387Z,99070.03
2023-02-19T23:29:47.316Z,99057.97
2023-02-19T23:32:50.445Z,99052.81
2023-02-19T23:35:54.902Z,99062.31
2023-02-19T23:38:58.165Z,99047.69
2023-02-19T23:42:01.206Z,99036.56
2023-02-19T23:45:04.710Z,99040.00
2023-02-19T23:48:08.016Z,99043.53
2023-02-19T23:51:14.009Z,99033.25
2023-02-19T23:54:17.251Z,99050.34
2023-02-19T23:57:20.587Z,99025.72
